createdAt,value
2017-06-26T00:01:00.730Z,2.50
2017-06-26T00:03:29.833Z,2.73
2017-06-26T00:05:58.911Z,8.03
2017-06-26T00:08:27.182Z,2.67
2017-06-26T00:10:56.871Z,2.17
2017-06-26T00:13:25.019Z,2.37
2017-06-26T00:15:53.301Z,3.93
2017-06-26T00:18:21.634Z,4.03
2017-06-26T00:20:50.679Z,2.50
2017-06-26T00:23:19.375Z,2.73
2017-06-26T00:25:47.752Z,3.03
2017-06-26T00:28:16.023Z,3.07
2017-06-26T00:30:44.306Z,3.17
2017-06-26T00:33:13.986Z,3.80
2017-06-26T00:35:42.907Z,3.43
2017-06-26T00:38:11.184Z,3.60
2017-06-26T00:40:39.510Z,2.93
2017-06-26T00:43:08.550Z,2.90
2017-06-26T00:45:37.590Z,7.60
2017-06-26T00:48:06.678Z,5.30
2017-06-26T00:50:34.970Z,5.03
2017-06-26T00:53:03.280Z,3.00
2017-06-26T00:55:31.643Z,2.60
2017-06-26T00:58:01.082Z,4.80
2017-06-26T01:00:29.381Z,4.63
2017-06-26T01:02:57.712Z,3.03
2017-06-26T01:05:25.979Z,2.60
2017-06-26T01:07:55.763Z,3.60
2017-06-26T01:10:24.087Z,6.20
2017-06-26T01:12:52.363Z,4.23
2017-06-26T01:15:20.655Z,3.73
2017-06-26T01:17:49.000Z,2.90
2017-06-26T01:20:18.067Z,2.60
2017-06-26T01:22:47.110Z,3.10
2017-06-26T01:25:15.454Z,2.87
2017-06-26T01:27:44.496Z,3.33
2017-06-26T01:30:12.774Z,3.70
2017-06-26T01:32:42.446Z,2.70
2017-06-26T01:35:10.599Z,2.90
2017-06-26T01:37:38.879Z,3.43
2017-06-26T01:40:07.207Z,2.83
2017-06-26T01:42:36.991Z,3.73
2017-06-26T01:45:05.279Z,3.40
2017-06-26T01:47:33.622Z,3.00
2017-06-26T01:50:01.911Z,4.87
2017-06-26T01:52:31.553Z,3.53
2017-06-26T01:55:00.178Z,4.60
2017-06-26T01:57:28.461Z,4.10
2017-06-26T01:59:56.735Z,3.53
2017-06-26T02:02:26.198Z,5.37
2017-06-26T02:04:55.247Z,5.13
2017-06-26T02:07:24.286Z,4.80
2017-06-26T02:09:53.742Z,3.50
2017-06-26T02:12:22.418Z,5.07
2017-06-26T02:14:50.691Z,4.50
2017-06-26T02:17:19.034Z,3.70
2017-06-26T02:19:47.307Z,4.53
2017-06-26T02:22:15.591Z,4.83
2017-06-26T02:24:45.064Z,5.23
2017-06-26T02:27:14.695Z,6.23
2017-06-26T02:29:43.242Z,5.17
2017-06-26T02:32:11.564Z,5.03
2017-06-26T02:34:39.835Z,7.27
2017-06-26T02:37:08.115Z,7.83
2017-06-26T02:39:36.439Z,9.00
2017-06-26T02:42:04.736Z,7.67
2017-06-26T02:44:33.031Z,4.77
2017-06-26T02:47:02.158Z,5.10
2017-06-26T02:49:31.280Z,5.40
2017-06-26T02:52:00.340Z,7.63
2017-06-26T02:54:30.258Z,5.00
2017-06-26T02:56:59.942Z,5.20
2017-06-26T02:59:28.506Z,7.10
2017-06-26T03:01:57.619Z,5.23
2017-06-26T03:04:27.407Z,9.93
2017-06-26T03:06:56.080Z,6.70
2017-06-26T03:09:25.171Z,5.50
2017-06-26T03:11:58.076Z,5.70
2017-06-26T03:14:27.566Z,7.03
2017-06-26T03:16:55.852Z,5.00
2017-06-26T03:19:24.127Z,7.30
2017-06-26T03:21:53.595Z,5.43
2017-06-26T03:24:22.639Z,7.37
2017-06-26T03:26:51.683Z,6.73
2017-06-26T03:29:21.146Z,7.20
2017-06-26T03:31:50.770Z,6.93
2017-06-26T03:34:20.083Z,6.57
2017-06-26T03:36:48.420Z,7.77
2017-06-26T03:39:18.214Z,6.70
2017-06-26T03:41:47.275Z,8.93
2017-06-26T03:44:16.738Z,6.27
2017-06-26T03:46:45.043Z,8.40
2017-06-26T03:49:13.326Z,8.07
2017-06-26T03:51:41.660Z,10.00
2017-06-26T03:54:09.935Z,6.57
2017-06-26T03:56:38.218Z,7.97
2017-06-26T03:59:07.691Z,9.33
2017-06-26T04:01:36.374Z,8.50
2017-06-26T04:04:06.163Z,8.43
2017-06-26T04:06:35.626Z,10.07
2017-06-26T04:09:04.688Z,8.53
2017-06-26T04:11:33.746Z,7.93
2017-06-26T04:14:02.099Z,9.43
2017-06-26T04:16:30.413Z,13.67
2017-06-26T04:18:58.740Z,8.40
2017-06-26T04:21:28.199Z,9.30
2017-06-26T04:23:56.476Z,8.40
2017-06-26T04:26:24.750Z,9.07
2017-06-26T04:28:53.085Z,7.97
2017-06-26T04:31:21.371Z,13.30
2017-06-26T04:33:49.666Z,7.83
2017-06-26T04:36:19.143Z,10.87
2017-06-26T04:38:48.199Z,11.23
2017-06-26T04:41:17.254Z,13.77
2017-06-26T04:43:45.994Z,12.77
2017-06-26T04:46:14.279Z,10.60
2017-06-26T04:48:42.562Z,16.10
2017-06-26T04:51:11.650Z,7.87
2017-06-26T04:53:40.701Z,8.70
2017-06-26T04:56:08.978Z,9.50
2017-06-26T04:58:38.078Z,11.53
2017-06-26T05:01:06.367Z,7.73
2017-06-26T05:03:36.004Z,8.93
2017-06-26T05:06:04.249Z,12.33
2017-06-26T05:08:32.554Z,11.50
2017-06-26T05:11:00.866Z,9.93
2017-06-26T05:13:30.603Z,12.43
2017-06-26T05:15:58.804Z,10.70
2017-06-26T05:18:27.874Z,11.90
2017-06-26T05:20:57.354Z,13.20
2017-06-26T05:26:25.951Z,9.13
2017-06-26T05:28:55.578Z,8.90
2017-06-26T05:31:24.136Z,14.83
2017-06-26T05:33:52.495Z,11.93
2017-06-26T05:36:20.783Z,10.90
2017-06-26T05:38:49.875Z,11.30
2017-06-26T05:41:18.219Z,16.90
2017-06-26T05:43:46.507Z,11.23
2017-06-26T05:46:14.799Z,16.23
2017-06-26T05:48:43.127Z,21.77
2017-06-26T05:51:12.179Z,10.10
2017-06-26T05:53:40.462Z,12.73
2017-06-26T05:56:08.799Z,13.63
2017-06-26T05:58:37.092Z,12.83
2017-06-26T06:01:05.379Z,12.70
2017-06-26T06:03:35.222Z,13.60
2017-06-26T06:06:03.526Z,10.10
2017-06-26T06:08:31.827Z,13.43
2017-06-26T06:11:00.163Z,12.23
2017-06-26T06:13:28.464Z,13.07
2017-06-26T06:15:57.166Z,16.80
2017-06-26T06:18:25.506Z,13.53
2017-06-26T06:20:53.795Z,13.47
2017-06-26T06:23:22.080Z,13.30
2017-06-26T06:25:51.918Z,12.97
2017-06-26T06:28:20.219Z,14.13
2017-06-26T06:30:48.535Z,12.70
2017-06-26T06:33:16.880Z,16.30
2017-06-26T06:35:45.174Z,22.77
2017-06-26T06:38:13.466Z,15.00
2017-06-26T06:40:42.938Z,18.27
2017-06-26T06:43:11.222Z,17.43
2017-06-26T06:45:39.510Z,21.53
2017-06-26T06:48:09.370Z,17.10
2017-06-26T06:50:39.016Z,19.03
2017-06-26T06:53:07.943Z,20.83
2017-06-26T06:55:36.275Z,21.60
2017-06-26T06:58:05.339Z,21.57
2017-06-26T07:00:33.627Z,19.97
2017-06-26T07:03:02.002Z,20.30
2017-06-26T07:05:30.302Z,20.63
2017-06-26T07:07:59.772Z,20.40
2017-06-26T07:10:28.096Z,22.23
2017-06-26T07:12:56.382Z,21.17
2017-06-26T07:15:24.665Z,18.27
2017-06-26T07:17:54.507Z,22.27
2017-06-26T07:20:22.790Z,22.53
2017-06-26T07:22:51.082Z,17.47
2017-06-26T07:25:19.433Z,18.57
2017-06-26T07:27:47.755Z,16.20
2017-06-26T07:30:17.571Z,19.83
2017-06-26T07:32:45.911Z,17.57
2017-06-26T07:35:14.960Z,17.87
2017-06-26T07:37:43.243Z,16.27
2017-06-26T07:40:11.591Z,18.90
2017-06-26T07:42:41.386Z,16.80
2017-06-26T07:45:11.211Z,15.20
2017-06-26T07:47:39.544Z,16.10
2017-06-26T07:50:09.178Z,16.27
2017-06-26T07:52:38.106Z,16.67
2017-06-26T07:55:07.954Z,14.50
2017-06-26T07:57:36.238Z,13.83
2017-06-26T08:00:04.534Z,10.20
2017-06-26T08:02:33.316Z,10.00
2017-06-26T08:05:02.756Z,9.57
2017-06-26T08:07:31.079Z,7.30
2017-06-26T08:09:59.450Z,6.87
2017-06-26T08:12:29.115Z,7.20
2017-06-26T08:14:57.659Z,5.90
2017-06-26T08:17:25.978Z,4.90
2017-06-26T08:19:55.606Z,5.33
2017-06-26T08:22:25.158Z,5.80
2017-06-26T08:24:54.702Z,4.07
2017-06-26T08:27:23.250Z,4.77
2017-06-26T08:29:52.885Z,3.90
2017-06-26T08:32:21.486Z,3.03
2017-06-26T08:34:49.768Z,3.90
2017-06-26T08:37:18.088Z,3.83
2017-06-26T08:39:46.807Z,3.47
2017-06-26T08:42:15.871Z,3.13
2017-06-26T08:44:44.545Z,3.90
2017-06-26T08:47:12.902Z,3.70
2017-06-26T08:49:41.177Z,4.80
2017-06-26T08:52:09.450Z,3.40
2017-06-26T08:54:37.794Z,3.83
2017-06-26T08:57:06.464Z,4.50
2017-06-26T08:59:36.099Z,5.57
2017-06-26T09:02:04.736Z,4.37
2017-06-26T09:04:34.411Z,6.27
2017-06-26T09:07:02.973Z,6.00
2017-06-26T09:09:32.166Z,3.20
2017-06-26T09:12:01.234Z,3.13
2017-06-26T09:14:29.550Z,3.13
2017-06-26T09:16:57.902Z,3.70
2017-06-26T09:19:26.178Z,4.77
2017-06-26T09:21:54.460Z,6.43
2017-06-26T09:24:23.941Z,3.30
2017-06-26T09:26:52.214Z,3.30
2017-06-26T09:29:20.503Z,4.00
2017-06-26T09:31:48.839Z,2.47
2017-06-26T09:34:17.127Z,4.80
2017-06-26T09:36:45.406Z,2.80
2017-06-26T09:39:13.759Z,2.77
2017-06-26T09:41:42.798Z,3.77
2017-06-26T09:44:11.091Z,11.50
2017-06-26T09:46:40.938Z,2.60
2017-06-26T09:49:10.566Z,2.90
2017-06-26T09:51:39.110Z,3.00
2017-06-26T09:54:07.451Z,3.00
2017-06-26T09:56:37.234Z,3.57
2017-06-26T09:59:05.524Z,3.10
2017-06-26T10:01:34.643Z,5.63
2017-06-26T10:04:03.710Z,5.30
2017-06-26T10:06:32.426Z,3.40
2017-06-26T10:09:00.820Z,4.03
2017-06-26T10:11:29.120Z,3.10
2017-06-26T10:13:58.551Z,4.13
2017-06-26T10:16:26.882Z,4.67
2017-06-26T10:18:55.167Z,3.30
2017-06-26T10:21:24.579Z,2.63
2017-06-26T10:23:53.670Z,4.70
2017-06-26T10:26:22.724Z,3.07
2017-06-26T10:28:52.506Z,2.40
2017-06-26T10:31:21.119Z,2.73
2017-06-26T10:33:49.411Z,3.10
2017-06-26T10:36:17.712Z,2.93
2017-06-26T10:38:46.510Z,2.00
2017-06-26T10:41:15.182Z,3.00
2017-06-26T10:43:44.598Z,8.77
2017-06-26T10:46:13.683Z,4.23
2017-06-26T10:48:41.963Z,3.73
2017-06-26T10:51:10.243Z,2.90
2017-06-26T10:53:39.247Z,2.23
2017-06-26T10:56:08.655Z,4.33
2017-06-26T10:58:37.330Z,4.40
2017-06-26T11:01:07.127Z,2.10
2017-06-26T11:03:35.415Z,4.93
2017-06-26T11:06:04.475Z,2.97
2017-06-26T11:08:34.420Z,3.00
2017-06-26T11:11:04.066Z,4.50
2017-06-26T11:13:32.623Z,4.87
2017-06-26T11:16:02.318Z,3.97
2017-06-26T11:18:30.898Z,6.70
2017-06-26T11:20:59.202Z,2.73
2017-06-26T11:23:27.531Z,9.23
2017-06-26T11:25:55.807Z,2.70
2017-06-26T11:28:24.082Z,8.07
2017-06-26T11:30:52.681Z,5.60
2017-06-26T11:33:22.094Z,3.17
2017-06-26T11:35:50.779Z,5.97
2017-06-26T11:38:20.607Z,6.33
2017-06-26T11:40:48.914Z,5.90
2017-06-26T11:43:17.970Z,5.07
2017-06-26T11:45:47.428Z,3.03
2017-06-26T11:48:16.463Z,6.37
2017-06-26T11:50:46.243Z,5.90
2017-06-26T11:53:15.937Z,3.60
2017-06-26T11:55:44.499Z,1.80
2017-06-26T11:58:14.135Z,2.47
2017-06-26T12:00:43.682Z,5.50
2017-06-26T12:03:13.202Z,3.37
2017-06-26T12:05:42.706Z,4.37
2017-06-26T12:08:11.298Z,3.17
2017-06-26T12:10:40.919Z,1.80
2017-06-26T12:13:09.830Z,9.93
2017-06-26T12:15:38.150Z,17.77
2017-06-26T12:18:06.439Z,49.80
2017-06-26T12:20:36.235Z,18.20
2017-06-26T12:23:06.064Z,7.07
2017-06-26T12:25:34.764Z,4.73
2017-06-26T12:28:04.212Z,3.70
2017-06-26T12:30:33.922Z,4.37
2017-06-26T12:33:02.507Z,5.30
2017-06-26T12:35:30.794Z,4.70
2017-06-26T12:38:00.665Z,3.20
2017-06-26T12:40:29.000Z,7.50
2017-06-26T12:42:57.294Z,3.17
2017-06-26T12:45:25.652Z,29.80
2017-06-26T12:47:53.922Z,4.20
2017-06-26T12:50:23.339Z,3.90
2017-06-26T12:52:51.659Z,3.17
2017-06-26T12:55:20.710Z,2.00
2017-06-26T12:57:49.762Z,2.50
2017-06-26T13:00:18.121Z,2.23
2017-06-26T13:02:46.391Z,6.10
2017-06-26T13:05:15.811Z,2.90
2017-06-26T13:07:45.483Z,2.30
2017-06-26T13:10:14.031Z,2.47
2017-06-26T13:12:43.663Z,3.00
2017-06-26T13:15:12.255Z,6.27
2017-06-26T13:17:40.534Z,2.87
2017-06-26T13:20:08.812Z,2.30
2017-06-26T13:22:37.546Z,3.53
2017-06-26T13:25:06.586Z,3.33
2017-06-26T13:27:34.870Z,3.63
2017-06-26T13:30:03.275Z,3.80
2017-06-26T13:32:31.962Z,2.60
2017-06-26T13:35:00.288Z,2.37
2017-06-26T13:37:29.765Z,3.03
2017-06-26T13:39:59.729Z,6.33
2017-06-26T13:42:29.403Z,4.67
2017-06-26T13:44:58.379Z,2.63
2017-06-26T13:47:26.661Z,6.43
2017-06-26T13:49:55.698Z,4.43
2017-06-26T13:52:25.375Z,2.97
2017-06-26T13:54:53.918Z,4.57
2017-06-26T13:57:22.207Z,3.43
2017-06-26T13:59:50.559Z,2.87
2017-06-26T14:02:20.382Z,6.33
2017-06-26T14:04:48.702Z,5.47
2017-06-26T14:07:17.027Z,2.53
2017-06-26T14:09:45.695Z,7.67
2017-06-26T14:12:15.103Z,7.03
2017-06-26T14:14:44.946Z,23.70
2017-06-26T14:17:13.227Z,3.80
2017-06-26T14:19:41.499Z,2.73
2017-06-26T14:22:09.819Z,5.43
2017-06-26T14:24:38.094Z,5.63
2017-06-26T14:27:06.370Z,4.20
2017-06-26T14:29:35.491Z,3.20
2017-06-26T14:32:04.544Z,3.57
2017-06-26T14:34:34.181Z,4.80
2017-06-26T14:37:02.389Z,5.27
2017-06-26T14:39:32.043Z,6.73
2017-06-26T14:42:00.215Z,3.07
2017-06-26T14:44:29.893Z,4.40
2017-06-26T14:46:58.441Z,4.50
2017-06-26T14:49:28.286Z,6.63
2017-06-26T14:51:56.873Z,3.90
2017-06-26T14:54:25.144Z,5.50
2017-06-26T14:56:53.418Z,4.20
2017-06-26T14:59:23.627Z,1.90
2017-06-26T15:01:53.403Z,9.03
2017-06-26T15:04:21.675Z,6.67
2017-06-26T15:06:51.063Z,2.73
2017-06-26T15:09:20.115Z,3.50
2017-06-26T15:11:48.403Z,3.13
2017-06-26T15:14:17.484Z,3.33
2017-06-26T15:16:47.127Z,2.53
2017-06-26T15:19:15.676Z,2.00
2017-06-26T15:21:45.343Z,1.73
2017-06-26T15:24:13.886Z,1.90
2017-06-26T15:26:42.159Z,2.60
2017-06-26T15:29:10.739Z,3.33
2017-06-26T15:31:40.366Z,5.50
2017-06-26T15:34:08.519Z,3.60
2017-06-26T15:36:38.187Z,6.60
2017-06-26T15:39:06.726Z,3.60
2017-06-26T15:41:35.415Z,3.33
2017-06-26T15:44:04.109Z,5.90
2017-06-26T15:46:33.899Z,4.37
2017-06-26T15:49:03.715Z,4.07
2017-06-26T15:51:32.062Z,7.47
2017-06-26T15:54:01.726Z,3.37
2017-06-26T15:56:31.270Z,4.70
2017-06-26T15:58:59.904Z,3.50
2017-06-26T16:01:29.715Z,2.57
2017-06-26T16:03:57.999Z,2.87
2017-06-26T16:06:26.658Z,6.77
2017-06-26T16:08:56.071Z,3.80
2017-06-26T16:11:24.353Z,2.03
2017-06-26T16:13:52.679Z,5.97
2017-06-26T16:16:20.958Z,5.50
2017-06-26T16:18:49.241Z,3.30
2017-06-26T16:21:18.698Z,6.23
2017-06-26T16:23:46.975Z,6.90
2017-06-26T16:26:15.251Z,2.80
2017-06-26T16:28:43.569Z,2.30
2017-06-26T16:31:11.851Z,6.77
2017-06-26T16:33:41.488Z,3.50
2017-06-26T16:36:11.332Z,8.70
2017-06-26T16:38:40.963Z,20.73
2017-06-26T16:41:09.514Z,6.10
2017-06-26T16:43:37.846Z,3.63
2017-06-26T16:46:06.141Z,5.40
2017-06-26T16:48:35.941Z,6.17
2017-06-26T16:51:04.270Z,3.83
2017-06-26T16:53:32.552Z,4.87
2017-06-26T16:56:00.870Z,5.07
2017-06-26T16:58:31.034Z,5.83
2017-06-26T17:00:59.353Z,9.93
2017-06-26T17:03:28.799Z,4.90
2017-06-26T17:05:57.135Z,13.43
2017-06-26T17:08:26.774Z,2.73
2017-06-26T17:10:55.700Z,10.13
2017-06-26T17:13:25.535Z,6.23
2017-06-26T17:15:53.819Z,3.77
2017-06-26T17:18:23.237Z,5.90
2017-06-26T17:20:52.322Z,6.93
2017-06-26T17:23:21.372Z,4.20
2017-06-26T17:25:50.991Z,5.30
2017-06-26T17:28:19.627Z,1.80
2017-06-26T17:30:47.929Z,4.10
2017-06-26T17:33:16.206Z,6.13
2017-06-26T17:35:44.531Z,4.60
2017-06-26T17:38:12.806Z,3.20
2017-06-26T17:40:41.082Z,2.53
2017-06-26T17:43:10.682Z,5.00
2017-06-26T17:45:38.968Z,4.53
2017-06-26T17:48:07.257Z,3.30
2017-06-26T17:50:35.869Z,4.40
2017-06-26T17:53:05.513Z,2.53
2017-06-26T17:55:33.698Z,9.70
2017-06-26T17:58:02.340Z,3.87
2017-06-26T18:00:31.031Z,5.67
2017-06-26T18:02:59.340Z,3.50
2017-06-26T18:05:29.185Z,1.70
2017-06-26T18:07:57.466Z,1.07
2017-06-26T18:10:27.090Z,1.30
2017-06-26T18:12:56.642Z,2.80
2017-06-26T18:15:25.558Z,4.80
2017-06-26T18:17:53.835Z,2.00
2017-06-26T18:20:23.508Z,6.70
2017-06-26T18:22:52.059Z,3.00
2017-06-26T18:25:20.331Z,3.63
2017-06-26T18:27:49.066Z,2.40
2017-06-26T18:30:18.704Z,4.53
2017-06-26T18:32:47.259Z,1.50
2017-06-26T18:35:15.731Z,8.27
2017-06-26T18:37:45.351Z,5.47
2017-06-26T18:40:14.642Z,3.80
2017-06-26T18:42:44.430Z,3.67
2017-06-26T18:45:12.979Z,5.20
2017-06-26T18:47:41.259Z,2.87
2017-06-26T18:50:09.610Z,2.80
2017-06-26T18:52:37.907Z,3.33
2017-06-26T18:55:07.359Z,2.90
2017-06-26T18:57:35.699Z,2.10
2017-06-26T19:00:04.015Z,2.93
2017-06-26T19:02:33.685Z,2.60
2017-06-26T19:05:01.945Z,7.27
2017-06-26T19:07:31.607Z,2.17
2017-06-26T19:10:00.590Z,2.83
2017-06-26T19:12:29.128Z,6.00
2017-06-26T19:14:58.206Z,1.80
2017-06-26T19:17:27.243Z,1.43
2017-06-26T19:19:55.607Z,3.10
2017-06-26T19:22:24.655Z,2.07
2017-06-26T19:24:52.942Z,2.50
2017-06-26T19:27:21.274Z,1.90
2017-06-26T19:29:50.354Z,2.50
2017-06-26T19:32:19.394Z,3.23
2017-06-26T19:34:47.727Z,4.50
2017-06-26T19:37:15.999Z,3.07
2017-06-26T19:39:45.784Z,6.07
2017-06-26T19:42:14.111Z,2.73
2017-06-26T19:44:42.391Z,4.20
2017-06-26T19:47:10.662Z,2.03
2017-06-26T19:49:40.483Z,9.70
2017-06-26T19:52:08.639Z,7.73
2017-06-26T19:54:36.914Z,6.77
2017-06-26T19:57:06.591Z,1.33
2017-06-26T19:59:35.155Z,2.50
2017-06-26T20:02:03.478Z,4.53
2017-06-26T20:04:31.839Z,3.27
2017-06-26T20:07:00.935Z,3.13
2017-06-26T20:09:30.011Z,4.20
2017-06-26T20:11:59.107Z,3.53
2017-06-26T20:14:27.382Z,3.20
2017-06-26T20:16:55.659Z,2.47
2017-06-26T20:19:25.206Z,6.63
2017-06-26T20:21:53.482Z,5.63
2017-06-26T20:24:21.758Z,2.83
2017-06-26T20:26:50.094Z,5.70
2017-06-26T20:29:19.902Z,6.07
2017-06-26T20:31:48.204Z,3.90
2017-06-26T20:34:17.787Z,4.20
2017-06-26T20:36:46.467Z,4.13
2017-06-26T20:39:15.506Z,7.20
2017-06-26T20:41:44.219Z,3.80
2017-06-26T20:44:13.262Z,3.33
2017-06-26T20:46:41.539Z,3.73
2017-06-26T20:49:10.622Z,7.27
2017-06-26T20:51:40.246Z,5.17
2017-06-26T20:54:09.167Z,5.40
2017-06-26T20:56:37.488Z,4.20
2017-06-26T20:59:05.763Z,4.43
2017-06-26T21:01:35.555Z,4.70
2017-06-26T21:04:06.367Z,4.93
2017-06-26T21:06:35.059Z,2.47
2017-06-26T21:09:03.750Z,5.10
2017-06-26T21:11:32.088Z,6.60
2017-06-26T21:14:00.442Z,7.17
2017-06-26T21:16:28.724Z,5.77
2017-06-26T21:18:57.330Z,26.67
2017-06-26T21:21:26.746Z,7.83
2017-06-26T21:23:55.026Z,5.10
2017-06-26T21:26:23.354Z,4.40
2017-06-26T21:28:52.403Z,2.60
2017-06-26T21:31:21.815Z,4.00
2017-06-26T21:33:50.531Z,5.00
2017-06-26T21:36:18.822Z,5.87
2017-06-26T21:38:47.105Z,3.53
2017-06-26T21:41:15.786Z,4.20
2017-06-26T21:43:45.194Z,1.90
2017-06-26T21:46:13.474Z,4.00
2017-06-26T21:48:41.810Z,4.60
2017-06-26T21:51:10.088Z,3.40
2017-06-26T21:53:39.714Z,3.67
2017-06-26T21:56:07.936Z,3.50
2017-06-26T21:58:36.210Z,1.70
2017-06-26T22:01:05.834Z,6.40
2017-06-26T22:03:35.232Z,4.10
2017-06-26T22:06:04.867Z,4.23
2017-06-26T22:08:33.046Z,5.10
2017-06-26T22:11:01.425Z,3.23
2017-06-26T22:13:30.504Z,2.70
2017-06-26T22:15:58.780Z,4.73
2017-06-26T22:18:28.914Z,3.77
2017-06-26T22:20:57.231Z,3.57
2017-06-26T22:23:27.010Z,2.33
2017-06-26T22:25:55.334Z,2.20
2017-06-26T22:28:25.134Z,4.23
2017-06-26T22:30:54.174Z,4.47
2017-06-26T22:33:23.659Z,4.50
2017-06-26T22:35:51.934Z,8.90
2017-06-26T22:38:21.719Z,5.80
2017-06-26T22:40:50.051Z,3.57
2017-06-26T22:43:18.354Z,4.10
2017-06-26T22:45:47.772Z,2.47
2017-06-26T22:48:17.738Z,2.60
2017-06-26T22:50:46.283Z,3.27
2017-06-26T22:53:16.071Z,1.60
2017-06-26T22:55:44.396Z,5.00
2017-06-26T22:58:14.040Z,3.13
2017-06-26T23:00:42.591Z,5.30
2017-06-26T23:03:10.918Z,1.90
2017-06-26T23:05:40.707Z,4.33
2017-06-26T23:08:10.326Z,2.60
2017-06-26T23:10:39.054Z,5.30
2017-06-26T23:13:07.327Z,3.33
2017-06-26T23:15:36.370Z,6.33
2017-06-26T23:18:05.867Z,1.87
2017-06-26T23:20:34.158Z,7.50
2017-06-26T23:23:02.463Z,5.13
2017-06-26T23:25:32.190Z,3.63
2017-06-26T23:28:00.766Z,4.10
2017-06-26T23:30:30.910Z,2.97
2017-06-26T23:33:00.025Z,3.73
2017-06-26T23:35:28.322Z,9.07
2017-06-26T23:37:56.598Z,2.57
2017-06-26T23:40:26.470Z,7.37
2017-06-26T23:42:54.738Z,4.30
2017-06-26T23:45:24.365Z,3.57
2017-06-26T23:47:52.556Z,5.00
2017-06-26T23:50:20.831Z,3.90
2017-06-26T23:52:49.125Z,3.90
2017-06-26T23:55:17.824Z,6.10
2017-06-26T23:57:46.106Z,3.60
